Time;durP1;ratioP1;P1;durP2;ratioP2;P2;SDS_P1;SDS_P2;PMS_P1;PMS_P2;Temp;Humidity;BMP_temperature;BMP_pressure;BME280_temperature;BME280_humidity;BME280_pressure;Samples;Min_cycle;Max_cycle;Signal;HPM_P1;HPM_P2
2024/01/10 00:00:50;;;;;;;22.52;21.02;;;;;;;-7.87;100.00;102914.47;5005085;28;20049;-56
2024/01/10 00:03:17;;;;;;;26.65;25.05;;;;;;;-7.97;100.00;102918.16;5004745;28;20046;-56
2024/01/10 00:05:45;;;;;;;25.45;23.75;;;;;;;-8.22;100.00;102912.66;4997438;28;20515;-61
2024/01/10 00:08:12;;;;;;;25.27;23.58;;;;;;;-8.32;100.00;102924.03;5014818;28;20061;-55
2024/01/10 00:10:39;;;;;;;26.67;24.98;;;;;;;-8.13;100.00;102916.78;5005457;28;20049;-60
2024/01/10 00:13:06;;;;;;;26.90;25.10;;;;;;;-8.12;100.00;102914.16;5006096;28;20053;-55
2024/01/10 00:15:33;;;;;;;31.63;29.52;;;;;;;-8.26;100.00;102907.59;5002931;28;20057;-55
2024/01/10 00:18:00;;;;;;;33.83;30.67;;;;;;;-8.54;100.00;102919.31;5001034;28;20047;-61
2024/01/10 00:20:26;;;;;;;31.52;29.52;;;;;;;-8.48;100.00;102920.09;5005248;28;20057;-53
2024/01/10 00:22:56;;;;;;;28.02;26.13;;;;;;;-8.16;100.00;102927.16;5004040;28;20050;-55
2024/01/10 00:25:23;;;;;;;26.92;25.23;;;;;;;-8.76;100.00;102926.59;5001694;28;20046;-60
2024/01/10 00:27:49;;;;;;;24.58;23.08;;;;;;;-8.61;100.00;102922.06;5007216;28;20046;-60
2024/01/10 00:30:19;;;;;;;25.95;24.02;;;;;;;-8.32;100.00;102921.44;5002776;28;20053;-61
2024/01/10 00:32:45;;;;;;;23.13;21.63;;;;;;;-8.36;100.00;102932.72;5006200;28;20061;-61
2024/01/10 00:35:12;;;;;;;26.40;24.88;;;;;;;-8.55;100.00;102930.50;5001310;28;20050;-60
2024/01/10 00:37:39;;;;;;;24.15;22.65;;;;;;;-8.55;100.00;102915.06;5005569;28;20516;-61
2024/01/10 00:40:09;;;;;;;25.02;23.52;;;;;;;-8.37;100.00;102929.28;4998790;28;20478;-55
2024/01/10 00:42:36;;;;;;;24.55;22.77;;;;;;;-8.45;100.00;102932.91;4994448;28;20138;-61
2024/01/10 00:45:03;;;;;;;27.17;25.38;;;;;;;-8.44;100.00;102930.31;5002517;28;20113;-55
2024/01/10 00:47:30;;;;;;;24.35;22.75;;;;;;;-8.50;100.00;102930.44;4998471;28;20125;-55
2024/01/10 00:49:57;;;;;;;25.67;24.08;;;;;;;-9.04;100.00;102926.22;5000618;28;20531;-60
2024/01/10 00:52:24;;;;;;;27.05;25.45;;;;;;;-8.80;100.00;102931.84;4998686;28;20446;-55
2024/01/10 00:54:51;;;;;;;26.88;25.27;;;;;;;-8.72;100.00;102924.81;4992572;28;20058;-61
2024/01/10 00:57:19;;;;;;;28.05;26.40;;;;;;;-8.72;100.00;102926.53;5003800;28;20177;-60
2024/01/10 00:59:46;;;;;;;28.92;27.23;;;;;;;-8.72;100.00;102921.38;5009208;28;20082;-61
2024/01/10 01:02:13;;;;;;;31.58;28.65;;;;;;;-8.76;100.00;102923.19;5005398;28;20084;-56
2024/01/10 01:04:40;;;;;;;25.85;24.27;;;;;;;-8.72;100.00;102916.25;5010972;28;20049;-60
2024/01/10 01:07:07;;;;;;;25.02;23.63;;;;;;;-8.71;100.00;102921.38;5004716;28;20118;-55
2024/01/10 01:09:35;;;;;;;25.13;23.63;;;;;;;-8.65;100.00;102915.22;5003809;28;20054;-55
2024/01/10 01:12:02;;;;;;;25.52;23.92;;;;;;;-8.69;100.00;102905.88;4994553;28;20045;-55
2024/01/10 01:14:30;;;;;;;29.17;27.38;;;;;;;-8.65;100.00;102910.97;5010423;28;20053;-55
2024/01/10 01:16:57;;;;;;;28.20;26.40;;;;;;;-8.71;100.00;102911.06;4993978;28;20064;-61
2024/01/10 01:21:59;;;;;;;25.75;24.25;;;;;;;-8.89;100.00;102906.25;4333905;26;20057;-56
2024/01/10 01:24:26;;;;;;;28.73;25.83;;;;;;;-8.62;100.00;102915.19;5019865;28;20057;-56
2024/01/10 01:26:53;;;;;;;26.45;24.77;;;;;;;-9.19;100.00;102913.63;5017254;28;20140;-56
2024/01/10 01:29:21;;;;;;;28.92;26.88;;;;;;;-8.82;100.00;102908.69;5036875;28;20485;-56
2024/01/10 01:31:50;;;;;;;30.05;27.58;;;;;;;-9.07;100.00;102910.84;5030469;28;20057;-61
2024/01/10 01:34:17;;;;;;;94.20;55.40;;;;;;;-8.74;100.00;102913.72;5023711;28;20049;-61
2024/01/10 01:36:44;;;;;;;73.50;58.40;;;;;;;-8.62;100.00;102910.91;5025337;28;20085;-56
2024/01/10 01:39:13;;;;;;;48.63;43.35;;;;;;;-8.44;100.00;102911.41;5020949;28;20060;-61
2024/01/10 01:41:40;;;;;;;37.95;34.15;;;;;;;-8.56;100.00;102903.06;5012065;28;20058;-56
2024/01/10 01:44:07;;;;;;;33.03;30.95;;;;;;;-8.68;100.00;102903.28;5022956;28;20057;-61
2024/01/10 01:46:34;;;;;;;33.10;30.40;;;;;;;-8.63;100.00;102900.59;5021406;28;20060;-61
2024/01/10 01:49:03;;;;;;;29.08;27.00;;;;;;;-8.49;100.00;102900.34;5031765;28;20045;-61
2024/01/10 01:51:32;;;;;;;27.10;25.40;;;;;;;-8.43;100.00;102902.81;5019947;28;20065;-56
2024/01/10 01:53:59;;;;;;;28.35;26.73;;;;;;;-8.60;100.00;102898.81;5025419;28;20055;-56
2024/01/10 01:56:26;;;;;;;27.85;26.27;;;;;;;-8.38;100.00;102888.94;5031662;28;20046;-56
2024/01/10 01:58:54;;;;;;;25.63;24.13;;;;;;;-8.63;100.00;102890.31;5022634;28;20064;-56
2024/01/10 02:01:22;;;;;;;24.15;22.80;;;;;;;-8.35;100.00;102890.56;5025423;28;20102;-56
2024/01/10 02:03:49;;;;;;;26.60;25.00;;;;;;;-8.32;100.00;102890.50;5018909;28;20049;-61
2024/01/10 02:06:17;;;;;;;23.33;21.90;;;;;;;-8.28;100.00;102886.16;5023525;28;20046;-61
2024/01/10 02:08:44;;;;;;;21.85;20.55;;;;;;;-8.01;100.00;102895.06;5030275;28;20054;-61
2024/01/10 02:11:11;;;;;;;23.88;22.48;;;;;;;-7.96;100.00;102893.19;5031284;28;20060;-56
2024/01/10 02:13:38;;;;;;;22.17;20.77;;;;;;;-7.85;100.00;102883.50;5028035;28;20473;-56
2024/01/10 02:16:06;;;;;;;22.13;20.63;;;;;;;-7.77;100.00;102893.66;5032294;28;20056;-56
2024/01/10 02:18:34;;;;;;;21.55;20.05;;;;;;;-7.81;100.00;102884.28;5027467;28;20079;-61
2024/01/10 02:21:01;;;;;;;22.42;21.02;;;;;;;-7.58;100.00;102882.03;5019017;28;20054;-56
2024/01/10 02:23:29;;;;;;;21.90;20.17;;;;;;;-7.61;100.00;102882.09;5017903;28;20050;-55
2024/01/10 02:25:58;;;;;;;22.50;21.10;;;;;;;-7.46;100.00;102886.91;5019088;28;20535;-56
2024/01/10 02:28:25;;;;;;;22.05;20.73;;;;;;;-7.35;100.00;102881.50;5032357;28;20132;-61
2024/01/10 02:30:53;;;;;;;20.60;19.30;;;;;;;-7.41;100.00;102879.91;5016343;28;20500;-61
2024/01/10 02:33:20;;;;;;;20.75;19.45;;;;;;;-7.31;100.00;102883.09;5026990;28;20042;-56
2024/01/10 02:35:47;;;;;;;20.60;19.10;;;;;;;-7.27;100.00;102878.72;5021816;28;20076;-61
2024/01/10 02:38:14;;;;;;;22.50;20.90;;;;;;;-7.25;100.00;102879.53;5025679;28;20057;-56
2024/01/10 02:40:41;;;;;;;20.70;19.45;;;;;;;-7.24;100.00;102884.63;5019763;28;20050;-56
2024/01/10 02:43:09;;;;;;;21.17;19.70;;;;;;;-7.22;100.00;102876.88;5025162;28;20068;-55
2024/01/10 02:45:36;;;;;;;20.90;19.55;;;;;;;-7.22;100.00;102875.13;5017349;28;20057;-60
2024/01/10 02:48:04;;;;;;;23.98;22.25;;;;;;;-7.30;100.00;102884.78;5027157;28;20052;-56
2024/01/10 02:50:30;;;;;;;22.58;21.15;;;;;;;-7.18;100.00;102879.31;5032381;28;20060;-61
2024/01/10 02:52:57;;;;;;;24.42;22.88;;;;;;;-7.23;100.00;102877.72;5032675;28;20047;-56
2024/01/10 02:55:24;;;;;;;23.83;22.15;;;;;;;-7.14;100.00;102872.34;5016797;28;20055;-56
2024/01/10 02:57:51;;;;;;;21.65;20.25;;;;;;;-7.14;100.00;102874.91;5026476;28;20060;-61
2024/01/10 03:00:20;;;;;;;22.10;20.60;;;;;;;-7.21;100.00;102863.06;5038208;28;20425;-56
2024/01/10 03:02:47;;;;;;;22.02;20.52;;;;;;;-7.04;100.00;102868.66;5029919;28;20508;-60
2024/01/10 03:05:14;;;;;;;24.63;22.80;;;;;;;-7.11;100.00;102871.41;5027742;28;20056;-60
2024/01/10 03:07:40;;;;;;;26.30;24.55;;;;;;;-7.02;100.00;102877.22;5032657;28;20068;-61
2024/01/10 03:10:08;;;;;;;24.42;22.55;;;;;;;-7.11;100.00;102867.09;5031574;28;20056;-61
2024/01/10 03:12:37;;;;;;;22.98;21.27;;;;;;;-7.02;100.00;102873.75;5027273;28;20569;-61
2024/01/10 03:15:06;;;;;;;22.58;20.98;;;;;;;-7.05;100.00;102866.09;5012387;28;20057;-61
2024/01/10 03:17:35;;;;;;;20.55;19.15;;;;;;;-7.05;100.00;102868.66;5041720;28;20055;-61
2024/01/10 03:20:03;;;;;;;22.55;20.95;;;;;;;-7.13;100.00;102868.03;5035583;28;20148;-61
2024/01/10 03:22:31;;;;;;;22.58;20.75;;;;;;;-7.14;100.00;102867.16;5035401;28;20103;-56
2024/01/10 03:24:58;;;;;;;21.80;20.30;;;;;;;-7.11;100.00;102868.81;5023931;28;20053;-55
2024/01/10 03:27:26;;;;;;;22.73;21.13;;;;;;;-7.17;100.00;102862.94;5027210;28;20056;-56
2024/01/10 03:29:52;;;;;;;21.88;20.27;;;;;;;-7.02;100.00;102861.72;5024605;28;20077;-56
2024/01/10 03:32:19;;;;;;;22.25;20.85;;;;;;;-6.96;100.00;102858.97;5020840;28;20056;-56
2024/01/10 03:34:51;;;;;;;24.08;22.48;;;;;;;-7.11;100.00;102863.66;5020223;28;20542;-56
2024/01/10 03:37:18;;;;;;;22.35;20.75;;;;;;;-7.21;100.00;102860.47;5024093;28;20064;-56
2024/01/10 03:39:44;;;;;;;22.70;21.20;;;;;;;-7.18;100.00;102853.50;5023562;28;20447;-61
2024/01/10 03:42:11;;;;;;;22.85;21.25;;;;;;;-7.12;100.00;102854.22;5025699;28;20054;-61
2024/01/10 03:44:38;;;;;;;23.42;21.83;;;;;;;-7.15;100.00;102848.25;5031845;28;20354;-61
2024/01/10 03:47:08;;;;;;;23.17;21.48;;;;;;;-7.06;100.00;102849.75;5017239;28;20452;-57
2024/01/10 03:49:35;;;;;;;22.23;20.52;;;;;;;-7.13;100.00;102837.88;5029070;28;20056;-61
2024/01/10 03:52:04;;;;;;;23.00;21.20;;;;;;;-7.13;100.00;102845.63;5026157;28;20049;-61
2024/01/10 03:54:31;;;;;;;22.40;20.80;;;;;;;-6.95;100.00;102847.72;5018206;28;20048;-61
2024/01/10 03:56:58;;;;;;;24.27;22.40;;;;;;;-7.04;100.00;102849.72;5024739;28;20041;-56
2024/01/10 03:59:24;;;;;;;23.33;21.42;;;;;;;-7.11;100.00;102853.34;5014339;28;20060;-61
2024/01/10 04:01:51;;;;;;;23.20;21.60;;;;;;;-7.11;100.00;102855.91;5019055;28;20517;-56
2024/01/10 04:04:18;;;;;;;22.50;21.00;;;;;;;-7.14;100.00;102856.84;5031251;28;20056;-56
2024/01/10 04:06:46;;;;;;;19.80;18.40;;;;;;;-7.18;100.00;102857.81;5017585;28;20471;-56
2024/01/10 04:09:14;;;;;;;20.75;19.25;;;;;;;-7.10;100.00;102860.22;5026744;28;20056;-56
2024/01/10 04:11:41;;;;;;;20.88;19.48;;;;;;;-7.18;100.00;102857.81;5023614;28;20539;-56
2024/01/10 04:14:08;;;;;;;22.30;20.80;;;;;;;-7.16;100.00;102858.63;5025133;28;20050;-61
2024/01/10 04:16:35;;;;;;;22.75;20.95;;;;;;;-7.22;100.00;102857.03;5020698;28;20145;-61
2024/01/10 04:19:02;;;;;;;21.88;20.20;;;;;;;-7.06;100.00;102866.97;5025531;28;20057;-61
2024/01/10 04:21:28;;;;;;;21.13;19.40;;;;;;;-7.13;100.00;102868.03;5021010;28;20597;-61
2024/01/10 04:23:55;;;;;;;21.85;20.20;;;;;;;-6.94;100.00;102874.41;5033006;28;20050;-61
2024/01/10 04:26:24;;;;;;;22.10;20.60;;;;;;;-7.03;100.00;102872.06;5028084;28;20053;-56
2024/01/10 04:28:50;;;;;;;22.00;20.60;;;;;;;-7.07;100.00;102871.31;5018382;28;20054;-56
2024/01/10 04:31:16;;;;;;;21.23;19.73;;;;;;;-7.13;100.00;102888.72;5021503;28;20446;-56
2024/01/10 04:33:43;;;;;;;22.45;20.77;;;;;;;-7.15;100.00;102879.25;5023006;28;20053;-56
2024/01/10 04:36:10;;;;;;;27.60;25.88;;;;;;;-7.18;100.00;102874.16;5022045;28;20050;-61
2024/01/10 04:38:37;;;;;;;24.83;23.23;;;;;;;-7.08;100.00;102873.91;5012260;28;20057;-61
2024/01/10 04:41:04;;;;;;;21.70;20.10;;;;;;;-7.04;100.00;102876.41;5016813;28;20132;-61
2024/01/10 04:43:32;;;;;;;25.23;23.73;;;;;;;-7.03;100.00;102872.06;5018164;28;20404;-61
2024/01/10 04:45:59;;;;;;;25.30;23.70;;;;;;;-7.08;100.00;102879.09;5028350;28;20571;-56
2024/01/10 04:48:26;;;;;;;25.30;23.80;;;;;;;-7.05;100.00;102869.53;5028557;28;20061;-56
2024/01/10 04:50:53;;;;;;;22.75;21.08;;;;;;;-7.01;100.00;102862.56;5017021;28;20049;-56
2024/01/10 04:53:20;;;;;;;22.45;20.63;;;;;;;-7.01;100.00;102870.31;5023010;28;20081;-61
2024/01/10 04:55:47;;;;;;;20.63;19.02;;;;;;;-7.18;100.00;102862.97;5015195;28;20053;-57
2024/01/10 04:58:14;;;;;;;23.92;22.52;;;;;;;-7.12;100.00;102864.56;5021908;28;20061;-56
2024/01/10 05:00:42;;;;;;;19.80;18.30;;;;;;;-7.21;100.00;102863.06;5033566;28;20446;-61
2024/01/10 05:03:10;;;;;;;23.90;22.00;;;;;;;-1.74;100.00;102881.22;5039524;28;20049;-61
2024/01/10 05:05:37;;;;;;;23.65;22.15;;;;;;;-6.65;100.00;102867.63;5027679;28;20076;-55
2024/01/10 05:08:04;;;;;;;23.77;22.27;;;;;;;-7.08;100.00;102867.03;5016438;28;20511;-56
2024/01/10 05:10:31;;;;;;;26.33;24.75;;;;;;;-6.99;100.00;102871.09;5020141;28;20068;-55
2024/01/10 05:12:58;;;;;;;23.40;21.90;;;;;;;-7.11;100.00;102871.41;5022723;28;20050;-56
2024/01/10 05:15:25;;;;;;;19.67;18.27;;;;;;;-7.10;100.00;102870.53;5022531;28;20462;-56
2024/01/10 05:17:53;;;;;;;25.73;22.80;;;;;;;-7.04;100.00;102871.22;5022838;28;20620;-61
2024/01/10 05:20:20;;;;;;;21.58;20.05;;;;;;;-7.16;100.00;102864.63;5017782;28;20056;-56
2024/01/10 05:22:47;;;;;;;21.23;19.83;;;;;;;-7.22;100.00;102869.13;5029090;28;20154;-61
2024/01/10 05:25:14;;;;;;;23.35;21.85;;;;;;;-7.20;100.00;102869.91;5016765;28;20053;-61
2024/01/10 05:27:41;;;;;;;23.58;22.10;;;;;;;-7.11;100.00;102874.84;5028345;28;20072;-61
2024/01/10 05:30:09;;;;;;;24.42;22.90;;;;;;;-7.30;100.00;102874.47;5027088;28;20053;-61
2024/01/10 05:32:36;;;;;;;25.02;23.42;;;;;;;-7.23;100.00;102873.44;5027802;28;20045;-56
2024/01/10 05:35:05;;;;;;;23.65;22.15;;;;;;;-7.25;100.00;102871.78;5022597;28;20438;-56
2024/01/10 05:37:32;;;;;;;23.17;21.60;;;;;;;-7.24;100.00;102868.28;5017645;28;20050;-56
2024/01/10 05:40:00;;;;;;;22.10;20.70;;;;;;;-7.10;100.00;102870.53;5018595;28;20057;-56
2024/01/10 05:42:27;;;;;;;21.50;20.20;;;;;;;-7.12;100.00;102872.31;5019107;28;20563;-56
2024/01/10 05:44:54;;;;;;;21.20;19.95;;;;;;;-7.17;100.00;102872.41;5020593;28;20327;-56
2024/01/10 05:47:21;;;;;;;21.75;20.45;;;;;;;-7.13;100.00;102875.78;5020286;28;20056;-56
2024/01/10 05:49:48;;;;;;;21.80;20.50;;;;;;;-7.10;100.00;102878.28;5017568;28;20046;-56
2024/01/10 05:52:16;;;;;;;20.17;18.98;;;;;;;-7.09;100.00;102878.25;5018224;28;20149;-56
2024/01/10 05:54:43;;;;;;;19.48;18.27;;;;;;;-7.21;100.00;102875.97;5022190;28;20493;-56
2024/01/10 05:57:10;;;;;;;20.80;19.50;;;;;;;-7.15;100.00;102883.56;5018754;28;20049;-56
2024/01/10 05:59:39;;;;;;;20.15;18.95;;;;;;;-7.10;100.00;102876.56;5020984;28;20064;-56
2024/01/10 06:02:06;;;;;;;20.15;18.85;;;;;;;-7.07;100.00;102875.63;5022516;28;20060;-56
2024/01/10 06:04:33;;;;;;;20.33;19.23;;;;;;;-7.17;100.00;102887.91;5019390;28;20050;-55
2024/01/10 06:07:00;;;;;;;19.73;18.42;;;;;;;-7.08;100.00;102882.53;5018126;28;20057;-56
2024/01/10 06:09:28;;;;;;;18.70;17.60;;;;;;;-7.26;100.00;102878.69;5019090;28;20064;-61
2024/01/10 06:11:55;;;;;;;21.45;20.25;;;;;;;-7.18;100.00;102881.06;5024191;28;20227;-61
2024/01/10 06:14:22;;;;;;;22.98;21.65;;;;;;;-7.23;100.00;102885.47;5017746;28;20045;-61
2024/01/10 06:16:48;;;;;;;22.02;20.38;;;;;;;-7.13;100.00;102892.13;5024796;28;20148;-56
2024/01/10 06:19:15;;;;;;;21.05;19.85;;;;;;;-7.14;100.00;102893.00;5026634;28;20050;-61
2024/01/10 06:21:42;;;;;;;20.60;19.40;;;;;;;-7.11;100.00;102895.50;5026472;28;20053;-61
2024/01/10 06:24:09;;;;;;;21.48;20.27;;;;;;;-7.16;100.00;102890.47;5029094;28;20045;-61
2024/01/10 06:26:37;;;;;;;21.05;19.85;;;;;;;-7.10;100.00;102897.22;5026966;28;20060;-61
2024/01/10 06:29:07;;;;;;;23.00;21.70;;;;;;;-5.98;100.00;102901.06;5028677;28;20052;-61
2024/01/10 06:31:34;;;;;;;22.40;20.80;;;;;;;-6.88;100.00;102896.66;5002218;28;20110;-56
2024/01/10 06:34:01;;;;;;;21.27;20.00;;;;;;;-6.97;100.00;102896.00;5026011;28;20120;-56
2024/01/10 06:36:28;;;;;;;22.48;21.17;;;;;;;-6.89;100.00;102905.31;5025105;28;20049;-56
2024/01/10 06:38:55;;;;;;;23.55;21.85;;;;;;;-6.84;100.00;102899.13;5024988;28;20041;-54
2024/01/10 06:41:24;;;;;;;21.48;20.27;;;;;;;-6.68;100.00;102897.84;5024598;28;20049;-61
2024/01/10 06:43:52;;;;;;;21.13;19.92;;;;;;;-6.71;100.00;102903.09;5022666;28;20451;-56
2024/01/10 06:46:19;;;;;;;20.30;19.20;;;;;;;-6.63;100.00;102905.47;5023745;28;20050;-56
2024/01/10 06:48:46;;;;;;;20.73;19.52;;;;;;;-6.70;100.00;102907.38;5025667;28;20053;-61
2024/01/10 06:51:14;;;;;;;22.85;21.45;;;;;;;-6.41;100.00;102904.88;5026634;28;20136;-61
2024/01/10 06:53:41;;;;;;;20.42;19.23;;;;;;;-6.47;100.00;102899.00;5023393;28;20053;-56
2024/01/10 06:56:10;;;;;;;21.60;20.35;;;;;;;-6.08;100.00;102911.69;5019276;28;20514;-56
2024/01/10 06:58:37;;;;;;;24.92;23.33;;;;;;;-6.36;100.00;102909.03;5025492;28;20057;-56
2024/01/10 07:01:06;;;;;;;22.98;21.50;;;;;;;-5.97;100.00;102907.94;5023799;28;20081;-55
2024/01/10 07:03:34;;;;;;;23.15;21.65;;;;;;;-5.46;100.00;102905.44;5025286;28;20053;-56
2024/01/10 07:06:01;;;;;;;21.55;20.00;;;;;;;-6.22;100.00;102909.50;5022445;28;20172;-56
2024/01/10 07:08:30;;;;;;;22.80;21.40;;;;;;;-5.69;100.00;102913.94;5021315;28;20133;-56
2024/01/10 07:10:57;;;;;;;23.08;21.50;;;;;;;-5.82;100.00;102912.63;5019883;28;20057;-56
2024/01/10 07:13:24;;;;;;;24.35;22.20;;;;;;;-5.28;100.00;102916.13;5021578;28;20128;-56
2024/01/10 07:15:52;;;;;;;25.67;24.08;;;;;;;-4.76;100.00;102901.41;5023225;28;20419;-56
2024/01/10 07:18:20;;;;;;;25.83;24.27;;;;;;;-5.34;100.00;102909.41;5021824;28;20057;-56
2024/01/10 07:20:47;;;;;;;23.23;21.83;;;;;;;-4.58;100.00;102921.53;5020218;28;20312;-61
2024/01/10 07:23:14;;;;;;;24.67;22.98;;;;;;;-4.36;100.00;102916.41;5022584;28;20053;-61
2024/01/10 07:25:41;;;;;;;22.48;20.98;;;;;;;-5.31;100.00;102919.66;5018464;28;20046;-56
2024/01/10 07:28:07;;;;;;;23.40;21.90;;;;;;;-4.21;100.00;102926.22;5015581;28;20062;-61
2024/01/10 07:30:35;;;;;;;24.10;22.60;;;;;;;-4.97;100.00;102916.81;5025150;28;20057;-61
2024/01/10 07:33:02;;;;;;;22.80;21.40;;;;;;;-4.19;100.00;102924.44;5013671;28;20081;-56
2024/01/10 07:35:30;;;;;;;23.80;22.30;;;;;;;-3.05;100.00;102920.88;5022345;28;20051;-56
2024/01/10 07:37:57;;;;;;;22.65;21.25;;;;;;;-1.48;100.00;102919.09;5020290;28;20057;-57
2024/01/10 07:40:24;;;;;;;23.92;22.33;;;;;;;-1.66;100.00;102916.44;5026513;28;20059;-62
2024/01/10 07:42:51;;;;;;;24.27;22.65;;;;;;;-3.05;100.00;102914.81;5015850;28;20076;-62
2024/01/10 07:45:18;;;;;;;22.80;21.30;;;;;;;-2.86;100.00;102917.50;5023059;28;20503;-61
2024/01/10 07:47:46;;;;;;;21.73;20.17;;;;;;;-3.76;100.00;102925.41;5024681;28;20061;-61
2024/01/10 07:50:14;;;;;;;24.08;21.70;;;;;;;-3.60;100.00;102932.59;5028424;28;20126;-62
2024/01/10 07:52:45;;;;;;;22.60;21.10;;;;;;;-3.28;100.00;102924.38;5025822;28;20059;-61
2024/01/10 07:55:13;;;;;;;21.55;20.15;;;;;;;-3.72;100.00;102929.59;5019263;28;20052;-61
2024/01/10 07:57:42;;;;;;;22.00;20.50;;;;;;;-2.39;100.00;102927.59;5024714;28;20055;-61
2024/01/10 08:00:10;;;;;;;23.50;21.80;;;;;;;-2.59;100.00;102934.50;5021801;28;20136;-62
2024/01/10 08:02:37;;;;;;;25.83;23.55;;;;;;;-4.32;100.00;102927.56;5009779;28;20049;-61
2024/01/10 08:05:08;;;;;;;24.73;23.13;;;;;;;-3.78;100.00;102936.75;5028713;28;20129;-61
2024/01/10 08:07:36;;;;;;;25.02;23.27;;;;;;;-2.07;100.00;102933.97;5010040;28;20585;-62
2024/01/10 08:10:05;;;;;;;27.95;26.17;;;;;;;-2.15;100.00;102938.66;5018664;28;20132;-61
2024/01/10 08:12:32;;;;;;;25.50;23.80;;;;;;;-2.82;100.00;102929.44;5017273;28;20052;-61
2024/01/10 08:14:59;;;;;;;22.80;21.20;;;;;;;-1.82;100.00;102938.06;5024957;28;20435;-57
2024/01/10 08:17:26;;;;;;;23.48;21.88;;;;;;;-1.98;100.00;102938.75;5024712;28;20049;-56
2024/01/10 08:19:53;;;;;;;24.35;22.55;;;;;;;-1.59;100.00;102929.16;5016487;28;20057;-57
2024/01/10 08:22:20;;;;;;;25.25;23.13;;;;;;;-2.82;100.00;102934.66;5017393;28;20057;-56
2024/01/10 08:24:47;;;;;;;24.20;22.42;;;;;;;-2.48;100.00;102936.66;5026314;28;20076;-56
2024/01/10 08:27:16;;;;;;;22.90;21.40;;;;;;;-3.13;100.00;102930.72;5026526;28;20053;-56
2024/01/10 08:29:44;;;;;;;22.98;21.38;;;;;;;-2.71;100.00;102924.63;5032417;28;20045;-56
2024/01/10 08:32:11;;;;;;;25.45;23.65;;;;;;;-3.21;100.00;102927.59;5029077;28;20053;-57
2024/01/10 08:34:38;;;;;;;26.40;24.50;;;;;;;-2.30;100.00;102921.97;5027649;28;20060;-56
2024/01/10 08:37:05;;;;;;;24.95;23.35;;;;;;;-2.93;100.00;102923.88;5026816;28;20057;-56
2024/01/10 08:39:32;;;;;;;25.30;23.70;;;;;;;-1.56;100.00;102929.88;5024384;28;20049;-57
2024/01/10 08:44:35;;;;;;;25.90;24.20;;;;;;;-0.58;100.00;102932.81;3368908;22;20041;-57
2024/01/10 08:47:02;;;;;;;26.23;24.42;;;;;;;-2.76;100.00;102931.78;5049120;28;20430;-56
2024/01/10 08:49:29;;;;;;;26.30;24.50;;;;;;;0.02;100.00;102937.50;5049044;28;20072;-57
2024/01/10 08:51:56;;;;;;;28.13;26.13;;;;;;;-2.23;100.00;102932.97;5049250;28;20096;-56
2024/01/10 08:54:24;;;;;;;29.98;27.92;;;;;;;-1.81;100.00;102930.19;5049691;28;20052;-56
2024/01/10 08:56:51;;;;;;;27.65;26.00;;;;;;;-1.00;100.00;102917.56;5046781;28;20079;-61
2024/01/10 08:59:18;;;;;;;22.98;21.38;;;;;;;0.01;100.00;102935.84;5042386;28;20064;-57
2024/01/10 09:01:46;;;;;;;24.63;22.92;;;;;;;-1.40;100.00;102923.00;5044170;28;20064;-57
2024/01/10 09:04:13;;;;;;;26.45;24.85;;;;;;;-0.09;100.00;102930.25;5047059;28;20545;-57
2024/01/10 09:06:40;;;;;;;25.05;23.27;;;;;;;-0.49;100.00;102934.13;5046715;28;20147;-56
2024/01/10 09:09:07;;;;;;;32.85;30.85;;;;;;;1.17;100.00;102928.41;5046834;28;20422;-57
2024/01/10 09:11:34;;;;;;;29.60;27.30;;;;;;;0.66;100.00;102918.25;5049825;28;20468;-62
2024/01/10 09:14:01;;;;;;;23.67;22.08;;;;;;;0.34;100.00;102920.06;5049114;28;20611;-62
2024/01/10 09:16:28;;;;;;;23.40;21.90;;;;;;;-0.76;100.00;102912.88;5046779;28;20048;-57
2024/01/10 09:18:58;;;;;;;22.73;21.27;;;;;;;0.27;100.00;102916.09;5049314;28;20052;-57
2024/01/10 09:21:26;;;;;;;23.25;21.75;;;;;;;0.77;100.00;102904.56;5049917;28;20192;-57
2024/01/10 09:23:53;;;;;;;23.40;21.80;;;;;;;1.44;100.00;102910.19;5049329;28;20165;-57
2024/01/10 09:26:20;;;;;;;24.85;23.15;;;;;;;-1.85;100.00;102900.81;5040408;28;20048;-56
2024/01/10 09:28:47;;;;;;;24.60;22.90;;;;;;;-0.76;100.00;102905.06;5048137;28;20053;-56
2024/01/10 09:31:14;;;;;;;21.80;20.30;;;;;;;0.80;100.00;102893.06;5049744;28;20048;-62
2024/01/10 09:33:41;;;;;;;23.45;22.05;;;;;;;-1.07;100.00;102890.97;5049282;28;20056;-61
2024/01/10 09:36:10;;;;;;;24.60;23.00;;;;;;;0.47;100.00;102891.47;5046787;28;20426;-61
2024/01/10 09:38:38;;;;;;;23.98;22.67;;;;;;;-0.29;100.00;102892.13;5049547;28;20063;-61
2024/01/10 09:41:06;;;;;;;24.52;23.13;;;;;;;0.21;100.00;102896.38;5048806;28;20088;-62
2024/01/10 09:43:34;;;;;;;25.45;23.75;;;;;;;-1.59;100.00;102887.47;5048017;28;20138;-61
2024/01/10 09:46:02;;;;;;;22.95;21.45;;;;;;;0.54;100.00;102890.16;5047238;28;20048;-61
2024/01/10 09:48:30;;;;;;;24.00;22.40;;;;;;;1.42;100.00;102882.41;5050574;28;20529;-61
2024/01/10 09:50:58;;;;;;;24.77;23.17;;;;;;;1.72;100.00;102879.69;5046277;28;20065;-61
2024/01/10 09:53:29;;;;;;;25.73;24.02;;;;;;;-0.93;100.00;102877.22;5043324;28;20045;-61
2024/01/10 09:55:57;;;;;;;24.15;22.45;;;;;;;0.11;100.00;102879.50;5041405;28;20724;-57
2024/01/10 09:58:27;;;;;;;24.10;22.50;;;;;;;0.05;100.00;102873.78;5044776;28;20651;-57
2024/01/10 10:00:54;;;;;;;26.75;25.05;;;;;;;0.69;100.00;102870.97;5044713;28;20052;-56
2024/01/10 10:03:21;;;;;;;26.60;24.80;;;;;;;1.47;100.00;102870.72;5044828;28;20447;-56
2024/01/10 10:05:48;;;;;;;24.17;22.58;;;;;;;2.16;100.00;102866.41;5042287;28;20044;-57
2024/01/10 10:08:21;;;;;;;22.60;21.00;;;;;;;3.08;100.00;102864.75;5043629;28;20044;-60
2024/01/10 10:10:51;;;;;;;25.42;23.63;;;;;;;-0.68;100.00;102852.47;5043276;28;20543;-61
2024/01/10 10:13:25;;;;;;;27.95;26.20;;;;;;;-1.10;100.00;102857.22;5046158;28;20563;-61
2024/01/10 10:15:59;;;;;;;27.48;25.70;;;;;;;1.09;100.00;102860.81;5044702;28;20044;-62
2024/01/10 10:18:26;;;;;;;25.63;24.13;;;;;;;2.88;100.00;102847.72;5029699;28;20574;-62
2024/01/10 10:21:08;;;;;;;26.20;24.60;;;;;;;0.32;100.00;102859.19;5043594;28;20060;-62
2024/01/10 10:23:35;;;;;;;27.73;26.02;;;;;;;-0.08;100.00;102852.72;5040294;28;20103;-61
2024/01/10 10:26:13;;;;;;;27.58;25.70;;;;;;;0.86;100.00;102849.06;5041190;28;20049;-61
2024/01/10 10:28:41;;;;;;;28.67;26.63;;;;;;;-1.07;100.00;102841.41;5042581;28;20057;-61
2024/01/10 10:31:08;;;;;;;26.75;24.95;;;;;;;-0.61;100.00;102835.56;5045834;28;20513;-62
2024/01/10 10:33:35;;;;;;;27.58;25.70;;;;;;;0.73;100.00;102824.59;5041309;28;20057;-63
2024/01/10 10:36:03;;;;;;;25.88;24.08;;;;;;;-0.73;100.00;102824.88;5042551;28;20041;-61
2024/01/10 10:38:30;;;;;;;23.40;21.67;;;;;;;1.87;100.00;102830.72;5036866;28;20052;-61
2024/01/10 10:40:59;;;;;;;23.83;22.13;;;;;;;1.35;100.00;102819.94;5044796;28;20053;-61
2024/01/10 10:43:30;;;;;;;26.30;24.60;;;;;;;2.00;100.00;102823.78;5045489;28;20048;-62
2024/01/10 10:45:58;;;;;;;26.42;24.65;;;;;;;2.75;100.00;102821.44;5044493;28;20434;-62
2024/01/10 10:48:27;;;;;;;24.88;23.17;;;;;;;2.47;100.00;102811.97;5036535;28;20053;-57
2024/01/10 10:51:03;;;;;;;25.42;23.42;;;;;;;0.66;100.00;102810.16;5042056;28;20074;-57
2024/01/10 10:53:32;;;;;;;24.58;22.67;;;;;;;1.20;100.00;102805.19;5042276;28;20140;-57
2024/01/10 10:56:01;;;;;;;25.20;23.40;;;;;;;2.50;100.00;102796.03;5038070;28;20076;-61
2024/01/10 10:58:30;;;;;;;24.80;23.00;;;;;;;1.89;93.36;102797.41;5045036;28;20071;-61
2024/01/10 11:00:58;;;;;;;27.33;25.42;;;;;;;1.60;95.06;102795.72;5042945;28;20049;-57
2024/01/10 11:03:29;;;;;;;27.67;25.77;;;;;;;1.24;90.44;102790.13;5045106;28;20060;-61
2024/01/10 11:05:56;;;;;;;26.90;24.90;;;;;;;2.97;88.59;102786.72;5046004;28;20473;-61
2024/01/10 11:08:25;;;;;;;25.35;23.45;;;;;;;1.06;91.57;102786.84;5044190;28;20045;-57